createdAt,value
2022-11-21T00:00:53.881Z,5.81
2022-11-21T00:03:21.385Z,5.83
2022-11-21T00:05:49.214Z,5.83
2022-11-21T00:08:20.597Z,5.83
2022-11-21T00:10:48.311Z,5.83
2022-11-21T00:13:18.938Z,5.76
2022-11-21T00:15:47.153Z,5.80
2022-11-21T00:18:14.664Z,5.47
2022-11-21T00:20:42.432Z,5.79
2022-11-21T00:23:10.540Z,5.81
2022-11-21T00:25:38.653Z,5.80
2022-11-21T00:28:06.050Z,5.72
2022-11-21T00:30:33.244Z,5.82
2022-11-21T00:33:00.395Z,5.50
2022-11-21T00:35:27.994Z,5.75
2022-11-21T00:37:55.022Z,5.74
2022-11-21T00:40:22.036Z,5.71
2022-11-21T00:42:49.014Z,5.81
2022-11-21T00:45:21.170Z,5.76
2022-11-21T00:47:50.934Z,5.81
2022-11-21T00:50:17.935Z,5.80
2022-11-21T00:52:44.904Z,5.74
2022-11-21T00:55:11.860Z,5.69
2022-11-21T00:57:39.017Z,5.64
2022-11-21T01:00:06.684Z,5.65
2022-11-21T01:02:33.740Z,5.68
2022-11-21T01:05:00.740Z,5.67
2022-11-21T01:07:27.808Z,5.68
2022-11-21T01:09:54.888Z,5.70
2022-11-21T01:12:21.892Z,5.53
2022-11-21T01:14:49.052Z,5.69
2022-11-21T01:17:16.304Z,5.77
2022-11-21T01:19:44.783Z,5.75
2022-11-21T01:22:11.731Z,5.68
2022-11-21T01:24:38.708Z,5.54
2022-11-21T01:27:06.734Z,5.41
2022-11-21T01:29:33.709Z,5.31
2022-11-21T01:32:00.679Z,5.47
2022-11-21T01:34:27.935Z,5.40
2022-11-21T01:36:55.200Z,5.12
2022-11-21T01:39:22.221Z,5.42
2022-11-21T01:41:49.229Z,5.35
2022-11-21T01:44:25.211Z,5.22
2022-11-21T01:46:53.159Z,5.23
2022-11-21T01:49:24.674Z,5.26
2022-11-21T01:52:10.363Z,5.29
2022-11-21T01:54:39.978Z,5.27
2022-11-21T01:57:13.559Z,5.30
2022-11-21T02:00:00.476Z,5.31
2022-11-21T02:02:36.636Z,5.08
2022-11-21T02:05:08.575Z,5.19
2022-11-21T02:07:40.942Z,5.23
2022-11-21T02:10:09.385Z,5.22
2022-11-21T02:12:53.343Z,5.31
2022-11-21T02:15:26.473Z,5.36
2022-11-21T02:17:54.170Z,5.31
2022-11-21T02:20:23.730Z,5.35
2022-11-21T02:23:14.150Z,5.40
2022-11-21T02:25:42.908Z,5.50
2022-11-21T02:28:13.957Z,5.56
2022-11-21T02:30:42.508Z,5.57
2022-11-21T02:33:10.999Z,5.52
2022-11-21T02:35:38.303Z,5.65
2022-11-21T02:38:06.839Z,5.71
2022-11-21T02:40:41.703Z,5.69
2022-11-21T02:43:21.896Z,5.68
2022-11-21T02:45:48.958Z,5.67
2022-11-21T02:48:16.274Z,5.67
2022-11-21T02:54:50.066Z,5.60
2022-11-21T02:57:17.052Z,5.62
2022-11-21T02:59:44.168Z,5.53
2022-11-21T03:02:11.116Z,5.62
2022-11-21T03:04:38.115Z,5.59
2022-11-21T03:07:05.156Z,5.38
2022-11-21T03:09:32.157Z,5.58
2022-11-21T03:11:59.143Z,5.58
2022-11-21T03:14:26.490Z,5.63
2022-11-21T03:16:53.585Z,5.54
2022-11-21T03:19:20.682Z,5.58
2022-11-21T03:21:47.640Z,5.58
2022-11-21T03:24:14.615Z,5.63
2022-11-21T03:26:41.595Z,5.59
2022-11-21T03:29:08.603Z,5.63
2022-11-21T03:31:35.721Z,5.63
2022-11-21T03:34:03.077Z,5.61
2022-11-21T03:36:30.121Z,5.58
2022-11-21T03:38:57.900Z,5.60
2022-11-21T03:41:32.243Z,5.50
2022-11-21T03:44:05.022Z,5.63
2022-11-21T03:46:39.820Z,5.63
2022-11-21T03:49:08.088Z,5.61
2022-11-21T03:51:35.522Z,5.64
2022-11-21T03:54:03.467Z,5.69
2022-11-21T03:56:30.932Z,5.68
2022-11-21T03:58:58.407Z,5.64
2022-11-21T04:01:25.947Z,5.62
2022-11-21T04:03:53.735Z,5.59
2022-11-21T04:06:22.716Z,5.51
2022-11-21T04:08:50.292Z,5.23
2022-11-21T04:11:17.891Z,5.48
2022-11-21T04:13:44.911Z,5.46
2022-11-21T04:16:11.927Z,5.50
2022-11-21T04:18:38.951Z,5.52
2022-11-21T04:21:08.325Z,5.55
2022-11-21T04:23:35.371Z,5.41
2022-11-21T04:26:02.828Z,5.38
2022-11-21T04:28:29.852Z,5.53
2022-11-21T04:31:05.763Z,5.63
2022-11-21T04:33:35.873Z,5.59
2022-11-21T04:36:02.884Z,5.62
2022-11-21T04:38:30.056Z,5.43
2022-11-21T04:40:57.079Z,5.53
2022-11-21T04:43:24.137Z,5.51
2022-11-21T04:45:51.125Z,5.52
2022-11-21T04:48:18.125Z,5.51
2022-11-21T04:50:45.903Z,5.57
2022-11-21T04:53:12.949Z,5.51
2022-11-21T04:55:39.962Z,5.51
2022-11-21T04:58:06.961Z,5.53
2022-11-21T05:00:34.669Z,5.49
2022-11-21T05:03:03.767Z,5.53
2022-11-21T05:05:31.238Z,5.53
2022-11-21T05:07:58.537Z,5.16
2022-11-21T05:10:25.611Z,5.43
2022-11-21T05:13:18.352Z,5.41
2022-11-21T05:15:45.917Z,5.45
2022-11-21T05:18:13.131Z,5.41
2022-11-21T05:20:40.111Z,5.46
2022-11-21T05:23:07.088Z,5.42
2022-11-21T05:25:34.076Z,5.37
2022-11-21T05:28:01.035Z,5.45
2022-11-21T05:30:28.071Z,5.46
2022-11-21T05:32:55.102Z,5.45
2022-11-21T05:35:22.075Z,5.54
2022-11-21T05:37:49.125Z,5.51
2022-11-21T05:40:16.392Z,5.49
2022-11-21T05:43:02.047Z,5.34
2022-11-21T05:45:29.166Z,5.49
2022-11-21T05:47:56.143Z,5.20
2022-11-21T05:50:23.181Z,5.39
2022-11-21T05:52:50.172Z,5.41
2022-11-21T05:55:17.213Z,5.40
2022-11-21T05:57:44.203Z,5.41
2022-11-21T06:00:11.715Z,4.99
2022-11-21T06:02:57.590Z,5.36
2022-11-21T06:05:24.612Z,5.38
2022-11-21T06:07:51.572Z,5.42
2022-11-21T06:10:18.756Z,5.45
2022-11-21T06:12:45.714Z,5.44
2022-11-21T06:15:12.769Z,5.45
2022-11-21T06:17:39.737Z,5.48
2022-11-21T06:20:07.682Z,5.42
2022-11-21T06:22:34.724Z,5.56
2022-11-21T06:25:01.751Z,5.54
2022-11-21T06:27:29.610Z,5.55
2022-11-21T06:29:56.604Z,5.61
2022-11-21T06:32:23.670Z,5.62
2022-11-21T06:34:50.713Z,5.58
2022-11-21T06:37:17.766Z,5.59
2022-11-21T06:39:44.737Z,5.71
2022-11-21T06:42:11.717Z,5.71
2022-11-21T06:44:38.718Z,5.66
2022-11-21T06:47:05.794Z,5.65
2022-11-21T06:49:32.757Z,5.65
2022-11-21T06:51:59.808Z,5.65
2022-11-21T06:54:26.788Z,5.68
2022-11-21T06:56:55.456Z,5.62
2022-11-21T06:59:22.421Z,5.61
2022-11-21T07:01:49.843Z,5.60
2022-11-21T07:04:16.891Z,5.53
2022-11-21T07:06:43.879Z,5.58
2022-11-21T07:09:32.317Z,5.64
2022-11-21T07:12:17.900Z,5.64
2022-11-21T07:14:44.877Z,5.66
2022-11-21T07:17:12.558Z,5.67
2022-11-21T07:19:41.159Z,5.67
2022-11-21T07:22:08.528Z,5.67
2022-11-21T07:24:35.516Z,5.67
2022-11-21T07:27:02.660Z,5.65
2022-11-21T07:29:30.169Z,5.66
2022-11-21T07:31:57.455Z,5.64
2022-11-21T07:34:24.467Z,5.61
2022-11-21T07:36:51.436Z,5.71
2022-11-21T07:39:19.290Z,5.65
2022-11-21T07:41:46.336Z,5.69
2022-11-21T07:44:13.439Z,5.67
2022-11-21T07:46:40.408Z,5.74
2022-11-21T07:49:07.546Z,5.76
2022-11-21T07:51:34.628Z,5.77
2022-11-21T07:54:01.580Z,5.80
2022-11-21T07:56:28.684Z,5.73
2022-11-21T07:58:55.644Z,5.72
2022-11-21T08:01:22.701Z,5.63
2022-11-21T08:03:49.751Z,5.80
2022-11-21T08:06:16.732Z,5.65
2022-11-21T08:08:44.574Z,5.65
2022-11-21T08:11:11.617Z,5.69
2022-11-21T08:13:38.602Z,5.66
2022-11-21T08:16:05.883Z,5.73
2022-11-21T08:18:32.942Z,5.78
2022-11-21T08:21:04.163Z,5.71
2022-11-21T08:23:31.991Z,5.54
2022-11-21T08:25:59.285Z,5.82
2022-11-21T08:28:26.253Z,5.82
2022-11-21T08:30:53.635Z,5.90
2022-11-21T08:33:20.681Z,5.94
2022-11-21T08:35:47.670Z,5.65
2022-11-21T08:38:14.698Z,6.03
2022-11-21T08:40:41.717Z,5.97
2022-11-21T08:43:10.759Z,6.17
2022-11-21T08:45:39.560Z,5.93
2022-11-21T08:48:11.449Z,6.15
2022-11-21T08:50:38.837Z,6.27
2022-11-21T08:53:05.907Z,6.35
2022-11-21T08:55:32.950Z,6.47
2022-11-21T08:58:00.030Z,6.42
2022-11-21T09:00:27.054Z,6.29
2022-11-21T09:02:54.125Z,6.24
2022-11-21T09:05:21.293Z,6.40
2022-11-21T09:07:48.702Z,6.34
2022-11-21T09:10:15.875Z,6.33
2022-11-21T09:12:43.329Z,6.06
2022-11-21T09:15:29.635Z,6.40
2022-11-21T09:18:04.102Z,6.17
2022-11-21T09:20:32.186Z,6.47
2022-11-21T09:23:04.618Z,6.48
2022-11-21T09:25:31.634Z,6.42
2022-11-21T09:28:06.090Z,6.38
2022-11-21T09:30:33.449Z,6.21
2022-11-21T09:33:05.397Z,6.55
2022-11-21T09:35:32.749Z,6.36
2022-11-21T09:38:00.475Z,6.43
2022-11-21T09:40:30.275Z,6.46
2022-11-21T09:43:18.730Z,6.34
2022-11-21T09:45:51.622Z,6.29
2022-11-21T09:48:36.197Z,6.32
2022-11-21T09:51:11.734Z,6.37
2022-11-21T09:53:59.773Z,6.41
2022-11-21T09:56:31.184Z,6.41
2022-11-21T09:59:29.135Z,6.36
2022-11-21T10:01:56.770Z,6.35
2022-11-21T10:04:25.875Z,6.13
2022-11-21T10:07:03.779Z,6.02
2022-11-21T10:09:56.259Z,6.30
2022-11-21T10:12:38.206Z,6.33
2022-11-21T10:15:23.631Z,6.54
2022-11-21T10:18:08.534Z,6.65
2022-11-21T10:20:44.504Z,6.63
2022-11-21T10:23:29.981Z,6.74
2022-11-21T10:26:16.446Z,6.79
2022-11-21T10:29:10.875Z,6.98
2022-11-21T10:31:41.151Z,7.17
2022-11-21T10:34:17.803Z,7.36
2022-11-21T10:36:50.549Z,7.30
2022-11-21T10:39:34.369Z,7.27
2022-11-21T10:42:14.182Z,7.34
2022-11-21T10:45:00.181Z,7.27
2022-11-21T10:47:37.465Z,7.33
2022-11-21T10:50:10.369Z,7.13
2022-11-21T10:52:54.520Z,7.34
2022-11-21T10:55:21.536Z,7.80
2022-11-21T10:57:52.550Z,7.87
2022-11-21T11:00:25.199Z,7.89
2022-11-21T11:02:55.194Z,7.87
2022-11-21T11:05:24.876Z,7.69
2022-11-21T11:08:11.155Z,7.65
2022-11-21T11:10:47.116Z,7.74
2022-11-21T11:13:49.928Z,7.63
2022-11-21T11:16:21.284Z,7.86
2022-11-21T11:19:10.522Z,7.67
2022-11-21T11:21:46.799Z,7.61
2022-11-21T11:24:13.763Z,7.51
2022-11-21T11:26:46.498Z,7.47
2022-11-21T11:29:25.042Z,7.57
2022-11-21T11:32:24.617Z,7.42
2022-11-21T11:35:09.476Z,7.47
2022-11-21T11:37:42.052Z,7.52
2022-11-21T11:40:18.784Z,7.54
2022-11-21T11:43:32.406Z,7.53
2022-11-21T11:46:32.628Z,7.33
2022-11-21T11:49:19.614Z,6.95
2022-11-21T11:51:57.248Z,6.90
2022-11-21T11:54:32.503Z,7.10
2022-11-21T11:56:59.734Z,6.87
2022-11-21T11:59:36.425Z,6.87
2022-11-21T12:02:17.506Z,6.91
2022-11-21T12:04:50.022Z,6.90
2022-11-21T12:10:21.408Z,6.76
2022-11-21T12:12:55.994Z,6.74
2022-11-21T12:15:51.260Z,6.74
2022-11-21T12:18:18.173Z,6.84
2022-11-21T12:20:57.152Z,7.08
2022-11-21T12:23:45.345Z,7.11
2022-11-21T12:26:33.991Z,7.12
2022-11-21T12:29:22.705Z,7.08
2022-11-21T12:32:04.968Z,7.01
2022-11-21T12:34:31.888Z,7.01
2022-11-21T12:37:32.854Z,6.90
2022-11-21T12:40:26.045Z,6.87
2022-11-21T12:43:17.180Z,6.94
2022-11-21T12:46:14.475Z,6.90
2022-11-21T12:49:26.875Z,6.98
2022-11-21T12:52:28.988Z,7.05
2022-11-21T12:55:20.468Z,7.11
2022-11-21T12:57:50.081Z,7.11
2022-11-21T13:00:27.621Z,7.04
2022-11-21T13:03:25.260Z,7.02
2022-11-21T13:05:55.648Z,7.01
2022-11-21T13:08:29.771Z,6.81
2022-11-21T13:11:21.435Z,6.93
2022-11-21T13:13:56.721Z,6.91
2022-11-21T13:16:39.761Z,6.93
2022-11-21T13:19:28.995Z,6.94
2022-11-21T13:21:56.438Z,6.87
2022-11-21T13:24:45.338Z,6.96
2022-11-21T13:27:40.243Z,7.05
2022-11-21T13:30:07.212Z,7.06
2022-11-21T13:33:06.448Z,7.11
2022-11-21T13:35:59.640Z,7.14
2022-11-21T13:38:26.632Z,7.09
2022-11-21T13:41:12.404Z,7.10
2022-11-21T13:43:39.431Z,7.00
2022-11-21T13:46:06.455Z,7.14
2022-11-21T13:49:01.375Z,7.15
2022-11-21T13:51:43.580Z,7.05
2022-11-21T13:54:44.281Z,7.17
2022-11-21T13:57:55.122Z,7.07
2022-11-21T14:01:09.266Z,7.13
2022-11-21T14:04:07.771Z,7.14
2022-11-21T14:06:44.685Z,7.16
2022-11-21T14:09:14.787Z,7.09
2022-11-21T14:11:58.001Z,7.12
2022-11-21T14:14:29.905Z,7.13
2022-11-21T14:17:24.106Z,7.01
2022-11-21T14:19:54.618Z,6.87
2022-11-21T14:22:33.422Z,6.80
2022-11-21T14:25:08.148Z,6.83
2022-11-21T14:27:44.917Z,6.77
2022-11-21T14:30:34.377Z,6.70
2022-11-21T14:33:23.110Z,6.60
2022-11-21T14:35:57.853Z,6.57
2022-11-21T14:38:25.890Z,6.56
2022-11-21T14:41:25.031Z,6.44
2022-11-21T14:43:58.078Z,6.46
2022-11-21T14:46:35.415Z,6.36
2022-11-21T14:49:17.458Z,6.24
2022-11-21T14:51:48.243Z,6.20
2022-11-21T14:54:40.009Z,5.82
2022-11-21T14:57:08.229Z,5.77
2022-11-21T14:59:43.277Z,5.70
2022-11-21T15:02:17.783Z,5.94
2022-11-21T15:04:48.007Z,5.44
2022-11-21T15:07:19.783Z,5.88
2022-11-21T15:12:47.936Z,5.79
2022-11-21T15:15:26.398Z,5.67
2022-11-21T15:18:26.019Z,5.61
2022-11-21T15:20:52.252Z,5.56
2022-11-21T15:23:33.985Z,5.34
2022-11-21T15:26:02.013Z,5.44
2022-11-21T15:28:30.455Z,5.36
2022-11-21T15:31:17.872Z,5.14
2022-11-21T15:34:34.377Z,5.17
2022-11-21T15:37:14.316Z,5.05
2022-11-21T15:39:46.430Z,5.05
2022-11-21T15:42:31.608Z,4.97
2022-11-21T15:45:02.949Z,4.92
2022-11-21T15:47:29.985Z,4.84
2022-11-21T15:49:57.034Z,4.79
2022-11-21T15:52:24.192Z,4.72
2022-11-21T15:54:51.308Z,4.67
2022-11-21T15:59:50.729Z,4.57
2022-11-21T16:02:18.089Z,4.45
2022-11-21T16:04:45.468Z,4.45
2022-11-21T16:07:12.515Z,4.23
2022-11-21T16:09:40.789Z,4.48
2022-11-21T16:12:09.373Z,4.45
2022-11-21T16:14:36.368Z,4.42
2022-11-21T16:17:03.506Z,4.35
2022-11-21T16:19:31.056Z,4.37
2022-11-21T16:21:58.200Z,4.38
2022-11-21T16:24:25.198Z,4.40
2022-11-21T16:26:54.518Z,4.41
2022-11-21T16:29:21.680Z,4.38
2022-11-21T16:31:50.261Z,4.31
2022-11-21T16:34:20.127Z,4.23
2022-11-21T16:36:47.119Z,4.30
2022-11-21T16:39:18.223Z,4.36
2022-11-21T16:41:47.239Z,4.35
2022-11-21T16:44:16.290Z,4.38
2022-11-21T16:46:47.181Z,4.40
2022-11-21T16:49:14.524Z,4.42
2022-11-21T16:51:41.564Z,4.39
2022-11-21T16:54:09.560Z,4.02
2022-11-21T16:56:37.038Z,4.36
2022-11-21T16:59:04.131Z,4.44
2022-11-21T17:01:31.280Z,4.45
2022-11-21T17:03:58.576Z,4.42
2022-11-21T17:06:29.509Z,4.33
2022-11-21T17:08:58.445Z,4.42
2022-11-21T17:11:28.988Z,4.45
2022-11-21T17:13:59.077Z,4.43
2022-11-21T17:16:26.730Z,4.43
2022-11-21T17:18:55.305Z,4.45
2022-11-21T17:21:23.617Z,4.27
2022-11-21T17:23:50.680Z,4.46
2022-11-21T17:26:20.682Z,4.43
2022-11-21T17:28:55.721Z,4.37
2022-11-21T17:31:23.243Z,4.57
2022-11-21T17:33:51.788Z,4.62
2022-11-21T17:36:20.926Z,4.66
2022-11-21T17:38:48.329Z,4.55
2022-11-21T17:41:17.839Z,4.67
2022-11-21T17:43:45.366Z,4.63
2022-11-21T17:46:14.919Z,4.84
2022-11-21T17:48:42.042Z,4.81
2022-11-21T17:51:14.336Z,4.78
2022-11-21T17:53:47.151Z,4.86
2022-11-21T17:56:19.564Z,4.75
2022-11-21T17:58:47.193Z,4.81
2022-11-21T18:01:19.003Z,4.80
2022-11-21T18:03:48.023Z,4.80
2022-11-21T18:06:17.067Z,4.82
2022-11-21T18:08:46.385Z,4.81
2022-11-21T18:11:16.210Z,4.62
2022-11-21T18:13:43.611Z,4.80
2022-11-21T18:16:16.874Z,4.85
2022-11-21T18:18:44.424Z,4.82
2022-11-21T18:21:16.514Z,4.82
2022-11-21T18:23:47.185Z,4.79
2022-11-21T18:26:26.693Z,4.80
2022-11-21T18:29:20.586Z,4.62
2022-11-21T18:31:45.951Z,4.85
2022-11-21T18:34:13.045Z,4.62
2022-11-21T18:36:40.384Z,4.87
2022-11-21T18:39:14.205Z,4.91
2022-11-21T18:41:42.761Z,4.95
2022-11-21T18:44:09.954Z,4.89
2022-11-21T18:46:38.594Z,4.98
2022-11-21T18:49:07.814Z,5.01
2022-11-21T18:51:36.194Z,5.03
2022-11-21T18:54:10.369Z,4.97
2022-11-21T18:56:38.924Z,5.04
2022-11-21T18:59:06.751Z,5.06
2022-11-21T19:01:35.896Z,5.01
2022-11-21T19:04:03.817Z,5.10
2022-11-21T19:06:31.142Z,5.11
2022-11-21T19:08:58.793Z,5.09
2022-11-21T19:11:28.459Z,5.15
2022-11-21T19:13:57.084Z,5.11
2022-11-21T19:16:26.168Z,5.11
2022-11-21T19:19:33.619Z,5.06
2022-11-21T19:21:44.827Z,4.98
2022-11-21T19:24:13.647Z,5.04
2022-11-21T19:26:41.664Z,5.05
2022-11-21T19:29:09.267Z,5.03
2022-11-21T19:31:40.968Z,4.99
2022-11-21T19:34:12.816Z,4.94
2022-11-21T19:36:40.139Z,4.64
2022-11-21T19:39:07.285Z,4.94
2022-11-21T19:41:34.348Z,4.69
2022-11-21T19:44:02.084Z,4.88
2022-11-21T19:46:32.111Z,4.90
2022-11-21T19:48:59.959Z,4.90
2022-11-21T19:51:36.359Z,4.92
2022-11-21T19:54:08.745Z,4.86
2022-11-21T19:56:36.093Z,4.95
2022-11-21T19:59:03.771Z,4.95
2022-11-21T20:01:32.318Z,5.00
2022-11-21T20:04:01.756Z,5.02
2022-11-21T20:06:41.486Z,4.97
2022-11-21T20:09:11.345Z,5.03
2022-11-21T20:11:40.305Z,5.02
2022-11-21T20:14:07.650Z,4.96
2022-11-21T20:16:44.224Z,5.03
2022-11-21T20:19:14.970Z,5.06
2022-11-21T20:21:43.176Z,5.06
2022-11-21T20:24:12.031Z,5.07
2022-11-21T20:26:39.893Z,4.97
2022-11-21T20:29:07.965Z,4.87
2022-11-21T20:31:37.072Z,5.03
2022-11-21T20:34:06.867Z,5.06
2022-11-21T20:36:36.560Z,5.05
2022-11-21T20:39:06.935Z,5.02
2022-11-21T20:41:36.289Z,5.05
2022-11-21T20:46:54.741Z,4.95
2022-11-21T20:49:22.352Z,4.99
2022-11-21T20:54:37.958Z,4.99
2022-11-21T20:57:05.898Z,4.55
2022-11-21T20:59:35.213Z,5.06
2022-11-21T21:02:02.256Z,5.01
2022-11-21T21:04:29.336Z,4.95
2022-11-21T21:06:56.323Z,4.98
2022-11-21T21:09:24.102Z,5.01
2022-11-21T21:11:52.980Z,5.01
2022-11-21T21:14:22.166Z,4.98
2022-11-21T21:16:49.739Z,5.03
2022-11-21T21:19:17.319Z,5.07
2022-11-21T21:21:44.656Z,5.07
2022-11-21T21:24:12.771Z,5.06
2022-11-21T21:26:43.529Z,5.06
2022-11-21T21:29:13.312Z,5.10
2022-11-21T21:31:45.260Z,5.12
2022-11-21T21:34:14.040Z,5.09
2022-11-21T21:36:41.001Z,5.05
2022-11-21T21:39:08.002Z,5.14
2022-11-21T21:41:35.721Z,5.12
2022-11-21T21:44:02.791Z,5.12
2022-11-21T21:46:29.771Z,5.13
2022-11-21T21:48:58.106Z,5.06
2022-11-21T21:51:29.933Z,5.03
2022-11-21T21:53:58.800Z,5.07
2022-11-21T21:56:27.748Z,5.07
2022-11-21T21:58:56.718Z,5.05
2022-11-21T22:01:31.541Z,4.97
2022-11-21T22:04:01.575Z,4.97
2022-11-21T22:06:29.696Z,5.00
2022-11-21T22:08:56.795Z,4.90
2022-11-21T22:11:26.130Z,5.00
2022-11-21T22:13:58.674Z,5.00
2022-11-21T22:16:26.040Z,5.00
2022-11-21T22:18:53.093Z,5.00
2022-11-21T22:21:26.663Z,5.08
2022-11-21T22:24:25.024Z,5.03
2022-11-21T22:26:42.186Z,4.97
2022-11-21T22:29:09.230Z,4.97
2022-11-21T22:31:37.348Z,5.02
2022-11-21T22:34:04.448Z,5.03
2022-11-21T22:36:31.440Z,4.97
2022-11-21T22:38:58.439Z,4.89
2022-11-21T22:41:27.362Z,4.89
2022-11-21T22:43:56.686Z,4.86
2022-11-21T22:46:25.520Z,4.79
2022-11-21T22:48:52.629Z,4.84
2022-11-21T22:51:22.798Z,4.87
2022-11-21T22:53:50.495Z,4.68
2022-11-21T22:56:20.008Z,4.80
2022-11-21T22:58:47.925Z,4.88
2022-11-21T23:01:20.455Z,4.85
2022-11-21T23:03:48.963Z,4.82
2022-11-21T23:06:21.470Z,4.81
2022-11-21T23:08:48.380Z,4.84
2022-11-21T23:11:22.605Z,4.77
2022-11-21T23:13:50.954Z,4.82
2022-11-21T23:16:18.764Z,4.87
2022-11-21T23:18:45.785Z,4.82
2022-11-21T23:21:13.982Z,4.63
2022-11-21T23:23:43.850Z,4.84
2022-11-21T23:26:11.570Z,4.88
2022-11-21T23:28:38.569Z,4.90
2022-11-21T23:31:05.636Z,4.63
2022-11-21T23:33:32.604Z,4.92
2022-11-21T23:35:59.566Z,4.91
2022-11-21T23:38:26.630Z,4.87
2022-11-21T23:40:53.727Z,4.87
2022-11-21T23:43:20.723Z,4.83
2022-11-21T23:45:51.937Z,4.90
2022-11-21T23:48:19.880Z,4.89
2022-11-21T23:50:48.076Z,4.94
2022-11-21T23:53:15.128Z,4.89
2022-11-21T23:55:43.699Z,4.92
2022-11-21T23:58:11.762Z,4.53
